Weather at Eurico de Aguiar Salles Airport

Public forecast

Using degrees Celsius for public forecast. Weather courtesy of forecast.io.

Current aviation weather report (METAR) for Eurico de Aguiar Salles Airport

Retrieved 2021/01/20 21:00 UTC (40 minutes ago):

SBVT 202100Z 04010KT CAVOK 27/21 Q1013

Aviation forecast (TAF) for Eurico de Aguiar Salles Airport

Retrieved 2021/01/20 18:00 UTC (4 hours ago):

TAF SBVT 201500Z 2018/2118 06017KT 9999 FEW030 TX32/2018Z TN22/2109Z PROB40 TEMPO 2018/2021 05015G25KT BECMG 2021/2023 03010KT CAVOK BECMG 2101/2103 32007KT SCT020 BECMG 2108/2110 02010KT 8000 SCT030 BECMG 2110/2113 9999 FEW030 BECMG 2114/2116 06015KT RMK PHN